createdAt,value
2023-04-18T00:00:10.805Z,9.77
2023-04-18T00:02:38.916Z,9.75
2023-04-18T00:05:07.868Z,9.66
2023-04-18T00:07:35.709Z,9.60
2023-04-18T00:10:04.120Z,9.71
2023-04-18T00:12:32.058Z,9.86
2023-04-18T00:14:58.959Z,9.79
2023-04-18T00:17:28.920Z,9.74
2023-04-18T00:19:56.543Z,9.69
2023-04-18T00:22:23.618Z,9.71
2023-04-18T00:24:51.073Z,9.75
2023-04-18T00:27:21.609Z,9.76
2023-04-18T00:29:48.991Z,9.71
2023-04-18T00:32:17.074Z,9.75
2023-04-18T00:34:43.998Z,9.71
2023-04-18T00:37:10.862Z,9.65
2023-04-18T00:39:37.786Z,9.68
2023-04-18T00:42:04.753Z,9.70
2023-04-18T00:44:32.499Z,9.72
2023-04-18T00:46:59.491Z,9.69
2023-04-18T00:49:27.095Z,9.68
2023-04-18T00:51:56.043Z,9.69
2023-04-18T00:54:24.542Z,9.66
2023-04-18T00:56:51.853Z,9.60
2023-04-18T00:59:18.901Z,9.58
2023-04-18T01:01:45.981Z,9.61
2023-04-18T01:04:13.457Z,9.63
2023-04-18T01:06:41.065Z,9.63
2023-04-18T01:09:08.076Z,9.64
2023-04-18T01:11:36.145Z,9.56
2023-04-18T01:14:07.623Z,9.55
2023-04-18T01:16:34.678Z,9.53
2023-04-18T01:19:02.325Z,9.55
2023-04-18T01:21:34.035Z,9.57
2023-04-18T01:24:08.387Z,9.61
2023-04-18T01:26:35.336Z,9.59
2023-04-18T01:29:02.204Z,9.57
2023-04-18T01:31:29.268Z,9.52
2023-04-18T01:33:56.221Z,9.50
2023-04-18T01:36:23.053Z,9.50
2023-04-18T01:38:49.912Z,9.58
2023-04-18T01:41:16.774Z,9.52
2023-04-18T01:43:43.625Z,9.51
2023-04-18T01:46:10.615Z,9.42
2023-04-18T01:48:37.534Z,9.39
2023-04-18T01:51:04.676Z,9.47
2023-04-18T01:53:32.212Z,9.43
2023-04-18T01:55:59.064Z,9.41
2023-04-18T01:58:26.913Z,9.36
2023-04-18T02:00:54.873Z,9.35
2023-04-18T02:03:22.005Z,9.48
2023-04-18T02:05:49.160Z,9.45
2023-04-18T02:08:16.028Z,9.39
2023-04-18T02:10:42.989Z,9.46
2023-04-18T02:13:10.265Z,9.50
2023-04-18T02:15:37.159Z,9.57
2023-04-18T02:18:04.298Z,9.47
2023-04-18T02:20:31.909Z,9.49
2023-04-18T02:22:59.128Z,9.52
2023-04-18T02:25:27.816Z,9.51
2023-04-18T02:27:55.842Z,9.44
2023-04-18T02:30:23.346Z,9.36
2023-04-18T02:32:54.898Z,9.41
2023-04-18T02:35:21.966Z,9.51
2023-04-18T02:37:49.122Z,9.51
2023-04-18T02:40:16.034Z,9.48
2023-04-18T02:42:42.953Z,9.44
2023-04-18T02:45:10.147Z,9.40
2023-04-18T02:47:47.073Z,9.41
2023-04-18T02:50:21.011Z,9.36
2023-04-18T02:52:47.882Z,9.29
2023-04-18T02:55:14.919Z,9.28
2023-04-18T02:57:41.815Z,9.31
2023-04-18T03:00:09.478Z,9.26
2023-04-18T03:02:36.374Z,9.31
2023-04-18T03:05:03.615Z,9.30
2023-04-18T03:07:31.144Z,9.23
2023-04-18T03:09:58.178Z,9.20
2023-04-18T03:12:25.073Z,9.16
2023-04-18T03:14:51.996Z,9.16
2023-04-18T03:17:18.872Z,9.17
2023-04-18T03:19:46.587Z,9.23
2023-04-18T03:22:14.430Z,9.20
2023-04-18T03:24:41.486Z,9.16
2023-04-18T03:27:08.427Z,9.10
2023-04-18T03:29:35.346Z,9.15
2023-04-18T03:32:02.254Z,9.18
2023-04-18T03:34:29.608Z,9.17
2023-04-18T03:36:56.587Z,9.15
2023-04-18T03:39:23.467Z,9.14
2023-04-18T03:41:50.356Z,9.17
2023-04-18T03:44:17.261Z,9.20
2023-04-18T03:46:44.450Z,9.15
2023-04-18T03:49:11.374Z,9.19
2023-04-18T03:51:49.438Z,9.23
2023-04-18T03:54:17.330Z,9.17
2023-04-18T03:56:44.830Z,9.16
2023-04-18T03:59:11.988Z,9.12
2023-04-18T04:01:39.002Z,9.13
2023-04-18T04:04:06.146Z,9.10
2023-04-18T04:06:33.152Z,9.11
2023-04-18T04:09:00.012Z,9.05
2023-04-18T04:11:27.431Z,9.00
2023-04-18T04:13:54.336Z,8.94
2023-04-18T04:16:21.542Z,8.98
2023-04-18T04:18:48.511Z,8.96
2023-04-18T04:21:15.914Z,9.00
2023-04-18T04:23:43.711Z,8.94
2023-04-18T04:26:10.816Z,8.95
2023-04-18T04:28:39.097Z,8.96
2023-04-18T04:31:06.992Z,9.02
2023-04-18T04:33:34.021Z,8.98
2023-04-18T04:36:01.437Z,8.98
2023-04-18T04:38:31.218Z,9.00
2023-04-18T04:40:58.634Z,9.02
2023-04-18T04:43:26.226Z,9.03
2023-04-18T04:45:54.096Z,8.98
2023-04-18T04:48:22.368Z,9.07
2023-04-18T04:50:54.355Z,9.09
2023-04-18T04:53:25.072Z,9.05
2023-04-18T04:55:57.565Z,9.08
2023-04-18T04:58:27.645Z,9.02
2023-04-18T05:00:57.552Z,9.14
2023-04-18T05:03:24.715Z,9.23
2023-04-18T05:05:51.956Z,9.25
2023-04-18T05:08:18.981Z,9.12
2023-04-18T05:10:46.208Z,9.07
2023-04-18T05:13:13.130Z,9.09
2023-04-18T05:15:40.365Z,9.15
2023-04-18T05:18:07.554Z,9.12
2023-04-18T05:20:34.814Z,9.11
2023-04-18T05:23:01.855Z,9.12
2023-04-18T05:25:30.073Z,9.08
2023-04-18T05:27:57.473Z,8.98
2023-04-18T05:30:24.525Z,9.00
2023-04-18T05:32:51.992Z,9.01
2023-04-18T05:35:19.070Z,9.01
2023-04-18T05:37:46.179Z,9.11
2023-04-18T05:40:13.709Z,9.17
2023-04-18T05:42:41.357Z,9.14
2023-04-18T05:45:08.821Z,9.08
2023-04-18T05:47:35.871Z,9.10
2023-04-18T05:50:03.201Z,9.05
2023-04-18T05:52:30.152Z,9.08
2023-04-18T05:54:57.284Z,9.12
2023-04-18T05:57:24.312Z,9.11
2023-04-18T05:59:51.440Z,9.19
2023-04-18T06:02:18.855Z,9.22
2023-04-18T06:04:46.185Z,9.28
2023-04-18T06:07:13.484Z,9.35
2023-04-18T06:09:40.612Z,9.28
2023-04-18T06:12:07.663Z,9.24
2023-04-18T06:14:34.662Z,9.28
2023-04-18T06:17:01.715Z,9.30
2023-04-18T06:19:28.830Z,9.30
2023-04-18T06:21:55.970Z,9.25
2023-04-18T06:24:23.949Z,9.26
2023-04-18T06:26:51.114Z,9.34
2023-04-18T06:29:18.392Z,9.35
2023-04-18T06:31:47.066Z,9.38
2023-04-18T06:34:14.524Z,9.38
2023-04-18T06:36:41.512Z,9.39
2023-04-18T06:39:09.092Z,9.40
2023-04-18T06:41:38.969Z,9.50
2023-04-18T06:44:06.221Z,9.59
2023-04-18T06:46:33.477Z,9.48
2023-04-18T06:49:00.785Z,9.53
2023-04-18T06:51:27.735Z,9.52
2023-04-18T06:53:55.008Z,9.59
2023-04-18T06:56:25.111Z,9.69
2023-04-18T06:58:53.200Z,9.64
2023-04-18T07:01:20.332Z,9.58
2023-04-18T07:03:48.091Z,9.67
2023-04-18T07:06:15.308Z,9.78
2023-04-18T07:08:42.442Z,9.72
2023-04-18T07:11:09.839Z,9.82
2023-04-18T07:13:36.773Z,9.91
2023-04-18T07:16:03.881Z,9.93
2023-04-18T07:18:38.133Z,9.84
2023-04-18T07:21:09.176Z,9.84
2023-04-18T07:23:36.244Z,9.91
2023-04-18T07:26:05.909Z,10.04
2023-04-18T07:28:34.488Z,10.00
2023-04-18T07:31:03.291Z,10.11
2023-04-18T07:33:33.980Z,10.14
2023-04-18T07:36:03.137Z,10.10
2023-04-18T07:38:30.091Z,10.17
2023-04-18T07:40:59.354Z,10.31
2023-04-18T07:43:27.115Z,10.39
2023-04-18T07:45:54.455Z,10.34
2023-04-18T07:48:28.007Z,10.32
2023-04-18T07:50:54.974Z,10.43
2023-04-18T07:53:22.009Z,10.48
2023-04-18T07:55:50.076Z,10.57
2023-04-18T07:58:17.511Z,10.64
2023-04-18T08:00:45.170Z,10.67
2023-04-18T08:03:13.344Z,10.69
2023-04-18T08:05:43.201Z,10.67
2023-04-18T08:08:13.238Z,10.75
2023-04-18T08:10:40.225Z,10.78
2023-04-18T08:13:07.369Z,10.86
2023-04-18T08:15:37.014Z,10.85
2023-04-18T08:18:03.983Z,10.86
2023-04-18T08:20:31.313Z,10.98
2023-04-18T08:23:07.935Z,11.06
2023-04-18T08:25:40.057Z,11.08
2023-04-18T08:28:07.128Z,11.10
2023-04-18T08:30:34.353Z,11.11
2023-04-18T08:33:01.592Z,11.18
2023-04-18T08:35:28.626Z,11.21
2023-04-18T08:37:55.512Z,11.25
2023-04-18T08:40:22.526Z,11.19
2023-04-18T08:42:49.742Z,11.22
2023-04-18T08:45:18.812Z,11.31
2023-04-18T08:47:45.806Z,11.34
2023-04-18T08:50:12.938Z,11.53
2023-04-18T08:52:45.229Z,11.59
2023-04-18T08:55:12.183Z,11.55
2023-04-18T08:57:40.041Z,11.55
2023-04-18T09:00:11.955Z,11.63
2023-04-18T09:02:43.975Z,11.69
2023-04-18T09:05:19.854Z,11.74
2023-04-18T09:07:53.122Z,11.75
2023-04-18T09:10:30.358Z,11.88
2023-04-18T09:12:58.395Z,11.87
2023-04-18T09:15:27.476Z,12.05
2023-04-18T09:18:03.250Z,12.10
2023-04-18T09:20:38.685Z,12.19
2023-04-18T09:23:11.519Z,12.08
2023-04-18T09:25:44.537Z,12.06
2023-04-18T09:28:29.416Z,12.10
2023-04-18T09:30:58.241Z,12.10
2023-04-18T09:33:32.683Z,12.14
2023-04-18T09:36:19.951Z,12.15
2023-04-18T09:38:47.792Z,12.07
2023-04-18T09:41:21.204Z,12.19
2023-04-18T09:43:48.428Z,12.33
2023-04-18T09:46:17.853Z,12.36
2023-04-18T09:48:44.954Z,12.38
2023-04-18T09:51:15.901Z,12.29
2023-04-18T09:53:48.054Z,12.25
2023-04-18T09:56:24.932Z,12.32
2023-04-18T09:58:57.173Z,12.29
2023-04-18T10:01:28.516Z,12.28
2023-04-18T10:03:57.415Z,12.40
2023-04-18T10:06:27.659Z,12.55
2023-04-18T10:08:55.701Z,12.54
2023-04-18T10:11:24.384Z,12.59
2023-04-18T10:13:56.026Z,12.82
2023-04-18T10:16:23.373Z,12.95
2023-04-18T10:18:51.348Z,12.83
2023-04-18T10:21:18.354Z,12.90
2023-04-18T10:23:49.112Z,12.93
2023-04-18T10:26:16.424Z,13.03
2023-04-18T10:28:55.078Z,13.13
2023-04-18T10:31:27.623Z,13.28
2023-04-18T10:36:28.800Z,13.41
2023-04-18T10:39:22.874Z,13.39
2023-04-18T10:41:51.102Z,13.36
2023-04-18T10:44:20.029Z,13.47
2023-04-18T10:46:52.905Z,13.55
2023-04-18T10:49:27.384Z,13.63
2023-04-18T10:52:00.318Z,13.66
2023-04-18T10:54:42.444Z,13.65
2023-04-18T10:57:10.495Z,13.63
2023-04-18T10:59:40.357Z,13.72
2023-04-18T11:02:30.897Z,13.79
2023-04-18T11:05:06.812Z,13.68
2023-04-18T11:07:39.810Z,13.59
2023-04-18T11:10:08.655Z,13.59
2023-04-18T11:12:37.165Z,13.69
2023-04-18T11:15:23.717Z,13.67
2023-04-18T11:18:04.396Z,13.70
2023-04-18T11:20:39.600Z,13.77
2023-04-18T11:23:17.175Z,13.80
2023-04-18T11:25:47.330Z,13.76
2023-04-18T11:28:20.798Z,13.71
2023-04-18T11:30:48.251Z,13.63
2023-04-18T11:33:15.357Z,13.79
2023-04-18T11:35:44.989Z,13.85
2023-04-18T11:38:14.365Z,13.67
2023-04-18T11:40:49.151Z,13.65
2023-04-18T11:43:21.606Z,13.63
2023-04-18T11:45:56.403Z,13.49
2023-04-18T11:48:24.258Z,13.43
2023-04-18T11:50:51.337Z,13.36
2023-04-18T11:53:37.753Z,13.48
2023-04-18T11:56:05.761Z,13.43
2023-04-18T11:58:34.280Z,13.52
2023-04-18T12:01:16.593Z,13.60
2023-04-18T12:03:44.880Z,13.60
2023-04-18T12:06:12.384Z,13.61
2023-04-18T12:08:43.529Z,13.59
2023-04-18T12:11:10.833Z,13.56
2023-04-18T12:13:37.888Z,13.60
2023-04-18T12:16:05.322Z,13.63
2023-04-18T12:18:32.639Z,13.55
2023-04-18T12:21:02.204Z,13.49
2023-04-18T12:23:37.312Z,13.48
2023-04-18T12:26:23.872Z,13.50
2023-04-18T12:28:51.634Z,13.44
2023-04-18T12:31:19.090Z,13.29
2023-04-18T12:33:46.072Z,13.25
2023-04-18T12:36:13.153Z,13.32
2023-04-18T12:38:40.069Z,13.65
2023-04-18T12:41:10.681Z,13.84
2023-04-18T12:43:37.727Z,13.78
2023-04-18T12:46:04.925Z,13.86
2023-04-18T12:48:31.922Z,13.86
2023-04-18T12:50:58.989Z,13.80
2023-04-18T12:53:26.304Z,13.77
2023-04-18T12:55:53.270Z,13.79
2023-04-18T12:58:20.977Z,13.89
2023-04-18T13:00:47.926Z,13.96
2023-04-18T13:03:15.020Z,14.08
2023-04-18T13:05:42.054Z,14.19
2023-04-18T13:08:17.263Z,14.15
2023-04-18T13:10:48.333Z,14.10
2023-04-18T13:13:15.314Z,14.04
2023-04-18T13:15:42.705Z,14.03
2023-04-18T13:18:09.653Z,13.93
2023-04-18T13:20:36.807Z,13.93
2023-04-18T13:23:04.018Z,13.99
2023-04-18T13:25:31.040Z,14.06
2023-04-18T13:27:58.733Z,14.03
2023-04-18T13:30:25.920Z,13.94
2023-04-18T13:32:52.911Z,13.82
2023-04-18T13:35:20.217Z,13.79
2023-04-18T13:37:47.121Z,13.86
2023-04-18T13:40:14.564Z,13.82
2023-04-18T13:42:41.507Z,13.76
2023-04-18T13:45:08.845Z,13.76
2023-04-18T13:47:36.078Z,13.88
2023-04-18T13:50:03.070Z,14.07
2023-04-18T13:52:29.956Z,14.13
2023-04-18T13:54:56.987Z,14.12
2023-04-18T13:57:23.937Z,14.09
2023-04-18T13:59:50.848Z,14.10
2023-04-18T14:02:17.859Z,14.24
2023-04-18T14:04:45.052Z,14.19
2023-04-18T14:07:11.989Z,14.10
2023-04-18T14:09:38.903Z,14.11
2023-04-18T14:12:06.182Z,14.06
2023-04-18T14:14:33.052Z,14.03
2023-04-18T14:17:00.176Z,14.08
2023-04-18T14:19:27.563Z,14.13
2023-04-18T14:21:54.717Z,14.10
2023-04-18T14:24:21.781Z,14.14
2023-04-18T14:26:48.697Z,14.18
2023-04-18T14:29:15.843Z,14.18
2023-04-18T14:31:43.025Z,14.13
2023-04-18T14:34:10.002Z,14.06
2023-04-18T14:36:37.176Z,14.10
2023-04-18T14:39:07.089Z,14.18
2023-04-18T14:41:34.056Z,14.38
2023-04-18T14:44:01.271Z,14.33
2023-04-18T14:46:28.541Z,14.51
2023-04-18T14:48:55.632Z,14.47
2023-04-18T14:51:23.473Z,14.38
2023-04-18T14:53:50.699Z,14.34
2023-04-18T14:56:21.224Z,14.61
2023-04-18T14:58:48.690Z,14.64
2023-04-18T15:01:17.652Z,14.64
2023-04-18T15:03:44.974Z,14.43
2023-04-18T15:06:12.092Z,14.09
2023-04-18T15:08:39.027Z,14.23
2023-04-18T15:11:09.659Z,14.66
2023-04-18T15:13:36.963Z,14.75
2023-04-18T15:16:04.097Z,14.82
2023-04-18T15:18:31.023Z,14.70
2023-04-18T15:21:00.098Z,14.99
2023-04-18T15:23:27.707Z,15.03
2023-04-18T15:25:54.621Z,15.02
2023-04-18T15:28:21.818Z,14.72
2023-04-18T15:30:48.674Z,14.59
2023-04-18T15:33:16.092Z,14.50
2023-04-18T15:35:42.997Z,14.67
2023-04-18T15:38:09.916Z,15.00
2023-04-18T15:40:36.843Z,15.20
2023-04-18T15:43:04.417Z,15.45
2023-04-18T15:45:31.482Z,15.72
2023-04-18T15:47:58.899Z,15.70
2023-04-18T15:50:26.390Z,15.64
2023-04-18T15:52:53.450Z,15.83
2023-04-18T15:55:20.389Z,15.45
2023-04-18T15:57:47.775Z,15.06
2023-04-18T16:00:17.811Z,14.80
2023-04-18T16:02:46.028Z,14.80
2023-04-18T16:05:13.335Z,14.91
2023-04-18T16:07:41.508Z,15.04
2023-04-18T16:10:10.908Z,15.01
2023-04-18T16:12:39.347Z,14.80
2023-04-18T16:15:08.769Z,14.68
2023-04-18T16:17:39.003Z,14.69
2023-04-18T16:20:08.334Z,14.69
2023-04-18T16:22:35.597Z,14.63
2023-04-18T16:25:02.747Z,14.53
2023-04-18T16:27:29.761Z,14.43
2023-04-18T16:29:56.917Z,14.61
2023-04-18T16:32:24.029Z,14.85
2023-04-18T16:34:51.047Z,14.77
2023-04-18T16:37:17.960Z,14.68
2023-04-18T16:39:44.887Z,14.53
2023-04-18T16:42:14.058Z,14.38
2023-04-18T16:44:42.311Z,14.39
2023-04-18T16:47:09.480Z,14.66
2023-04-18T16:49:40.451Z,14.54
2023-04-18T16:52:07.466Z,14.42
2023-04-18T16:54:34.440Z,14.31
2023-04-18T16:57:01.928Z,14.27
2023-04-18T16:59:29.103Z,14.18
2023-04-18T17:01:56.211Z,14.02
2023-04-18T17:04:23.582Z,13.88
2023-04-18T17:06:52.054Z,13.86
2023-04-18T17:09:19.913Z,13.90
2023-04-18T17:11:47.217Z,13.91
2023-04-18T17:14:15.033Z,13.96
2023-04-18T17:16:42.782Z,13.98
2023-04-18T17:19:10.651Z,14.03
2023-04-18T17:21:38.340Z,14.06
2023-04-18T17:24:07.142Z,14.00
2023-04-18T17:26:35.189Z,13.85
2023-04-18T17:29:04.851Z,13.83
2023-04-18T17:31:32.474Z,13.81
2023-04-18T17:34:00.179Z,13.82
2023-04-18T17:36:27.496Z,13.82
2023-04-18T17:38:54.521Z,13.74
2023-04-18T17:41:22.187Z,13.69
2023-04-18T17:43:51.243Z,13.57
2023-04-18T17:46:18.374Z,13.50
2023-04-18T17:48:45.571Z,13.50
2023-04-18T17:51:12.586Z,13.50
2023-04-18T17:53:39.526Z,13.46
2023-04-18T17:56:06.587Z,13.40
2023-04-18T17:58:33.615Z,13.32
2023-04-18T18:01:00.705Z,13.30
2023-04-18T18:03:27.998Z,13.26
2023-04-18T18:05:55.221Z,13.25
2023-04-18T18:08:22.865Z,13.27
2023-04-18T18:10:50.084Z,13.24
2023-04-18T18:13:17.087Z,13.16
2023-04-18T18:15:44.164Z,13.17
2023-04-18T18:18:11.263Z,13.14
2023-04-18T18:20:38.243Z,13.11
2023-04-18T18:23:05.201Z,13.09
2023-04-18T18:25:32.391Z,13.11
2023-04-18T18:27:59.395Z,13.07
2023-04-18T18:30:27.922Z,13.03
2023-04-18T18:32:56.838Z,12.95
2023-04-18T18:35:23.925Z,12.96
2023-04-18T18:37:50.906Z,12.95
2023-04-18T18:40:17.888Z,12.97
2023-04-18T18:42:46.944Z,12.99
2023-04-18T18:45:13.998Z,12.95
2023-04-18T18:47:41.307Z,12.91
2023-04-18T18:50:08.797Z,12.91
2023-04-18T18:52:37.887Z,12.92
2023-04-18T18:55:05.365Z,12.90
2023-04-18T18:57:32.415Z,12.92
2023-04-18T18:59:59.396Z,12.93
2023-04-18T19:02:26.535Z,12.90
2023-04-18T19:04:53.679Z,12.85
2023-04-18T19:07:20.786Z,12.80
2023-04-18T19:09:47.823Z,12.83
2023-04-18T19:12:14.702Z,12.84
2023-04-18T19:14:42.551Z,12.79
2023-04-18T19:17:16.837Z,12.80
2023-04-18T19:19:45.770Z,12.76
2023-04-18T19:22:12.673Z,12.74
2023-04-18T19:24:39.581Z,12.76
2023-04-18T19:27:09.023Z,12.76
2023-04-18T19:29:36.438Z,12.76
2023-04-18T19:32:03.598Z,12.77
2023-04-18T19:34:30.697Z,12.73
2023-04-18T19:36:57.888Z,12.61
2023-04-18T19:39:24.796Z,12.61
2023-04-18T19:41:54.843Z,12.65
2023-04-18T19:44:21.949Z,12.60
2023-04-18T19:46:49.024Z,12.60
2023-04-18T19:49:24.876Z,12.55
2023-04-18T19:51:54.676Z,12.57
2023-04-18T19:54:24.663Z,12.55
2023-04-18T19:56:54.752Z,12.44
2023-04-18T19:59:24.201Z,12.47
2023-04-18T20:01:54.184Z,12.47
2023-04-18T20:04:26.015Z,12.48
2023-04-18T20:06:56.394Z,12.48
2023-04-18T20:09:26.365Z,12.40
2023-04-18T20:11:54.898Z,12.30
2023-04-18T20:14:26.219Z,12.19
2023-04-18T20:16:53.441Z,12.09
2023-04-18T20:19:28.336Z,12.04
2023-04-18T20:21:55.463Z,12.05
2023-04-18T20:24:28.169Z,11.97
2023-04-18T20:26:59.951Z,11.95
2023-04-18T20:29:29.782Z,11.91
2023-04-18T20:31:56.673Z,11.79
2023-04-18T20:34:26.711Z,11.79
2023-04-18T20:36:53.935Z,11.77
2023-04-18T20:39:21.208Z,11.71
2023-04-18T20:41:56.008Z,11.71
2023-04-18T20:44:29.485Z,11.63
2023-04-18T20:47:03.795Z,11.53
2023-04-18T20:49:34.547Z,11.43
2023-04-18T20:52:01.456Z,11.40
2023-04-18T20:54:28.566Z,11.35
2023-04-18T20:56:55.840Z,11.32
2023-04-18T20:59:22.785Z,11.25
2023-04-18T21:01:52.893Z,11.21
2023-04-18T21:04:25.038Z,11.19
2023-04-18T21:06:52.113Z,11.06
2023-04-18T21:09:19.039Z,11.03
2023-04-18T21:11:46.178Z,11.01
2023-04-18T21:14:13.244Z,11.01
2023-04-18T21:16:40.483Z,10.92
2023-04-18T21:19:10.788Z,10.87
2023-04-18T21:21:40.719Z,10.87
2023-04-18T21:24:11.193Z,10.78
2023-04-18T21:26:38.112Z,10.70
2023-04-18T21:29:05.230Z,10.70
2023-04-18T21:31:34.922Z,10.69
2023-04-18T21:34:07.267Z,10.67
2023-04-18T21:36:40.203Z,10.63
2023-04-18T21:39:08.472Z,10.56
2023-04-18T21:41:37.828Z,10.53
2023-04-18T21:44:04.992Z,10.45
2023-04-18T21:46:32.022Z,10.40
2023-04-18T21:48:59.012Z,10.41
2023-04-18T21:51:27.383Z,10.39
2023-04-18T21:53:55.057Z,10.32
2023-04-18T21:56:21.957Z,10.34
2023-04-18T21:58:52.174Z,10.37
2023-04-18T22:01:19.103Z,10.32
2023-04-18T22:03:49.557Z,10.29
2023-04-18T22:06:20.887Z,10.32
2023-04-18T22:08:48.370Z,10.29
2023-04-18T22:11:15.938Z,10.32
2023-04-18T22:13:50.223Z,10.31
2023-04-18T22:16:17.708Z,10.28
2023-04-18T22:18:49.100Z,10.28
2023-04-18T22:21:19.199Z,10.20
2023-04-18T22:23:49.293Z,10.18
2023-04-18T22:26:19.504Z,10.19
2023-04-18T22:28:49.562Z,10.17
2023-04-18T22:31:16.469Z,10.20
2023-04-18T22:33:47.756Z,10.28
2023-04-18T22:36:18.161Z,10.21
2023-04-18T22:38:45.866Z,10.17
2023-04-18T22:41:13.627Z,10.17
2023-04-18T22:43:40.656Z,10.15
2023-04-18T22:46:08.125Z,10.00
2023-04-18T22:48:35.367Z,10.01
2023-04-18T22:51:02.959Z,9.98
2023-04-18T22:53:30.179Z,9.85
2023-04-18T22:55:57.051Z,9.80
2023-04-18T22:58:24.716Z,9.89
2023-04-18T23:00:51.741Z,9.98
2023-04-18T23:03:18.792Z,9.82
2023-04-18T23:05:46.544Z,9.84
2023-04-18T23:08:13.488Z,9.83
2023-04-18T23:10:40.534Z,9.82
2023-04-18T23:13:07.719Z,9.68
2023-04-18T23:15:35.797Z,9.70
2023-04-18T23:18:02.895Z,9.60
2023-04-18T23:20:29.966Z,9.61
2023-04-18T23:22:56.903Z,9.66
2023-04-18T23:25:23.922Z,9.59
2023-04-18T23:27:51.032Z,9.59
2023-04-18T23:30:18.018Z,9.58
2023-04-18T23:32:45.355Z,9.48
2023-04-18T23:35:12.462Z,9.42
2023-04-18T23:37:39.566Z,9.39
2023-04-18T23:40:08.062Z,9.29
2023-04-18T23:42:35.489Z,9.35
2023-04-18T23:45:04.236Z,9.21
2023-04-18T23:47:31.288Z,9.10
2023-04-18T23:49:58.335Z,9.07
2023-04-18T23:52:25.988Z,9.03
2023-04-18T23:54:52.921Z,9.02
2023-04-18T23:57:19.767Z,9.03
2023-04-18T23:59:46.696Z,9.02
